Time;durP1;ratioP1;P1;durP2;ratioP2;P2;SDS_P1;SDS_P2;PMS_P1;PMS_P2;Temp;Humidity;BMP_temperature;BMP_pressure;BME280_temperature;BME280_humidity;BME280_pressure;Samples;Min_cycle;Max_cycle;Signal;HPM_P1;HPM_P2
2022/04/20 00:03:59;;;;;;;18.90;11.13;;;;;;;6.84;67.92;100558.20;3659928;79;99223;-82
2022/04/20 00:09:00;;;;;;;22.30;11.63;;;;;;;6.85;67.76;100543.92;3664052;79;98859;-82
2022/04/20 00:14:01;;;;;;;18.95;11.25;;;;;;;6.86;67.88;100553.72;3634668;79;99250;-82
2022/04/20 00:19:02;;;;;;;19.92;11.55;;;;;;;6.84;67.92;100553.28;3663344;80;35337;-82
2022/04/20 00:24:04;;;;;;;19.57;12.00;;;;;;;6.84;68.29;100548.63;3684070;79;98791;-82
2022/04/20 00:29:05;;;;;;;19.57;10.20;;;;;;;6.85;68.75;100552.94;3690544;79;99117;-82
2022/04/20 00:34:06;;;;;;;17.33;10.73;;;;;;;6.86;68.30;100543.59;3702653;79;99090;-82
2022/04/20 00:39:07;;;;;;;19.07;11.67;;;;;;;6.90;68.73;100536.84;3686748;79;98874;-81
2022/04/20 00:44:09;;;;;;;19.27;10.90;;;;;;;6.88;69.88;100528.98;3684220;79;99135;-82
2022/04/20 00:49:10;;;;;;;18.12;10.60;;;;;;;6.86;70.41;100529.10;3682447;80;34871;-81
2022/04/20 00:54:11;;;;;;;18.23;10.60;;;;;;;6.87;70.84;100538.33;3732956;78;98858;-81
2022/04/20 00:59:15;;;;;;;14.90;8.87;;;;;;;6.86;71.40;100523.07;3721668;78;98997;-81
2022/04/20 01:04:17;;;;;;;15.32;8.33;;;;;;;6.87;72.24;100515.08;3747958;78;99098;-81
2022/04/20 01:09:18;;;;;;;13.10;7.60;;;;;;;6.88;73.99;100514.52;3736572;78;98973;-81
2022/04/20 01:14:19;;;;;;;14.70;7.73;;;;;;;6.88;74.76;100516.66;3736495;78;99042;-81
2022/04/20 01:19:20;;;;;;;11.73;6.80;;;;;;;6.89;75.51;100521.02;3729821;78;98951;-81
2022/04/20 01:24:21;;;;;;;12.27;6.77;;;;;;;6.89;76.09;100516.91;3747171;78;25867;-81
2022/04/20 01:29:22;;;;;;;12.57;6.83;;;;;;;6.89;77.58;100523.75;3728178;78;98792;-81
2022/04/20 01:34:23;;;;;;;12.13;6.67;;;;;;;6.88;78.38;100524.09;3738272;78;99326;-81
2022/04/20 01:39:24;;;;;;;11.33;6.83;;;;;;;6.88;78.98;100517.25;3734165;78;99064;-81
2022/04/20 01:44:25;;;;;;;16.47;8.23;;;;;;;6.86;78.79;100518.97;3724682;78;98568;-81
2022/04/20 01:49:26;;;;;;;13.60;7.80;;;;;;;6.92;79.51;100516.79;3697456;79;98936;-81
2022/04/20 01:54:27;;;;;;;13.60;7.83;;;;;;;6.94;79.09;100507.64;3696451;79;32410;-81
2022/04/20 01:59:28;;;;;;;13.67;8.13;;;;;;;6.96;79.83;100495.77;3684511;79;98524;-81
2022/04/20 02:04:29;;;;;;;12.85;8.03;;;;;;;6.95;80.63;100489.52;3706947;78;98702;-81
2022/04/20 02:09:30;;;;;;;15.30;8.15;;;;;;;6.96;80.51;100487.00;3702290;79;98641;-81
2022/04/20 02:14:31;;;;;;;14.30;8.47;;;;;;;7.00;80.97;100482.98;3681248;79;98667;-81
2022/04/20 02:19:32;;;;;;;15.07;8.90;;;;;;;6.99;81.01;100472.59;3645153;79;98797;-81
2022/04/20 02:24:33;;;;;;;15.30;8.43;;;;;;;7.01;81.14;100467.59;3705572;79;25868;-81
2022/04/20 02:29:34;;;;;;;14.13;8.37;;;;;;;7.01;81.39;100470.32;3677705;78;98790;-80
2022/04/20 02:34:35;;;;;;;14.43;7.67;;;;;;;7.00;81.51;100461.90;3668385;80;98604;-81
2022/04/20 02:39:37;;;;;;;13.57;7.80;;;;;;;6.99;81.68;100446.61;3663274;79;98681;-81
2022/04/20 02:44:39;;;;;;;12.77;7.43;;;;;;;6.97;81.59;100440.70;3676903;79;98674;-81
2022/04/20 02:49:40;;;;;;;13.22;7.28;;;;;;;6.98;81.54;100436.81;3648918;79;98680;-81
2022/04/20 02:54:41;;;;;;;13.70;8.17;;;;;;;6.96;81.76;100447.33;3664876;79;25913;-81
2022/04/20 02:59:42;;;;;;;12.63;7.07;;;;;;;6.96;82.45;100447.89;3653530;79;98614;-81
2022/04/20 03:04:43;;;;;;;12.97;7.73;;;;;;;6.94;81.96;100441.42;3657519;80;98479;-82
2022/04/20 03:09:44;;;;;;;13.37;7.07;;;;;;;6.93;82.65;100454.08;3634447;79;98613;-81
2022/04/20 03:14:45;;;;;;;12.27;7.77;;;;;;;6.90;83.19;100456.14;3648108;80;98531;-81
2022/04/20 03:19:46;;;;;;;11.43;6.67;;;;;;;6.89;83.12;100458.09;3661119;79;99564;-81
2022/04/20 03:24:46;;;;;;;14.20;7.68;;;;;;;6.87;83.31;100459.59;3652656;80;26527;-80
2022/04/20 03:29:48;;;;;;;15.13;8.47;;;;;;;6.88;83.65;100458.44;3639587;78;98625;-81
2022/04/20 03:34:49;;;;;;;15.47;9.07;;;;;;;6.88;84.07;100454.34;3671213;79;98454;-81
2022/04/20 03:39:50;;;;;;;13.63;8.47;;;;;;;6.86;84.12;100450.58;3645603;78;99164;-81
2022/04/20 03:44:51;;;;;;;14.47;7.73;;;;;;;6.88;83.83;100447.50;3669416;80;98621;-81
2022/04/20 03:49:51;;;;;;;13.30;7.20;;;;;;;6.83;83.92;100435.45;3719788;77;98712;-81
2022/04/20 03:54:52;;;;;;;13.57;7.10;;;;;;;6.89;83.61;100441.69;3757915;78;32591;-81
2022/04/20 03:59:53;;;;;;;12.47;6.83;;;;;;;6.89;83.70;100443.61;3747208;77;98673;-81
2022/04/20 04:04:55;;;;;;;13.33;7.67;;;;;;;6.91;83.39;100444.84;3759616;77;98517;-81
2022/04/20 04:09:56;;;;;;;13.07;6.47;;;;;;;6.92;83.58;100445.66;3739699;78;98533;-82
2022/04/20 04:14:57;;;;;;;13.20;7.83;;;;;;;6.89;83.45;100442.24;3758059;77;99081;-81
2022/04/20 04:19:58;;;;;;;11.37;6.37;;;;;;;6.91;83.29;100446.78;3739081;77;98965;-81
2022/04/20 04:24:59;;;;;;;12.53;6.80;;;;;;;6.90;83.65;100441.89;3744070;78;32529;-81
2022/04/20 04:30:01;;;;;;;11.28;5.97;;;;;;;6.90;83.43;100439.16;3747599;77;98817;-81
2022/04/20 04:35:03;;;;;;;13.88;7.12;;;;;;;6.89;83.29;100444.98;3750213;78;98691;-81
2022/04/20 04:40:06;;;;;;;13.32;7.08;;;;;;;6.91;83.54;100441.30;3735921;78;98920;-81
2022/04/20 04:50:27;;;;;;;12.98;6.90;;;;;;;6.96;83.19;100441.05;3717374;78;98578;-81
2022/04/20 04:55:28;;;;;;;14.53;6.97;;;;;;;6.98;83.14;100432.70;3736940;78;98633;-81
2022/04/20 05:00:29;;;;;;;14.17;6.43;;;;;;;6.98;83.23;100434.08;3654630;80;98364;-81
2022/04/20 05:05:31;;;;;;;14.03;6.80;;;;;;;7.00;83.28;100433.73;3625200;80;98425;-81
2022/04/20 05:10:32;;;;;;;11.03;5.80;;;;;;;7.05;83.51;100441.68;3608772;81;99367;-82
2022/04/20 05:15:34;;;;;;;10.03;5.30;;;;;;;7.07;83.82;100443.48;3733722;78;98682;-82
2022/04/20 05:20:35;;;;;;;12.30;6.20;;;;;;;7.09;84.09;100435.73;3675433;79;98605;-82
2022/04/20 05:25:36;;;;;;;12.63;5.67;;;;;;;7.09;84.56;100428.89;3625809;81;97816;-82
2022/04/20 05:30:37;;;;;;;12.23;6.27;;;;;;;7.11;84.85;100434.79;3627934;81;98667;-82
2022/04/20 05:35:39;;;;;;;9.90;5.23;;;;;;;7.12;84.93;100433.64;3627879;79;98494;-80
2022/04/20 05:46:00;;;;;;;10.55;4.72;;;;;;;7.13;85.84;100440.70;3607216;81;98707;-79
2022/04/20 05:51:01;;;;;;;11.38;5.47;;;;;;;7.11;85.86;100443.81;3658006;77;98644;-79
2022/04/20 05:56:04;;;;;;;15.63;5.77;;;;;;;7.13;86.54;100439.33;3666397;79;98699;-80
2022/04/20 06:01:05;;;;;;;10.63;4.75;;;;;;;7.14;86.59;100434.09;3652202;79;98513;-79
2022/04/20 06:06:06;;;;;;;12.37;5.80;;;;;;;7.19;86.57;100439.31;3716193;79;98385;-78
2022/04/20 06:11:07;;;;;;;11.50;5.80;;;;;;;7.21;86.93;100434.27;3684951;78;98597;-79
2022/04/20 06:16:08;;;;;;;12.37;5.60;;;;;;;7.19;87.30;100434.61;3698326;79;98976;-78
2022/04/20 06:21:09;;;;;;;13.77;6.70;;;;;;;7.19;87.63;100429.14;3674756;79;98627;-78
2022/04/20 06:26:11;;;;;;;11.22;5.72;;;;;;;7.19;87.89;100430.50;3663602;79;98686;-78
2022/04/20 06:31:12;;;;;;;14.75;6.55;;;;;;;7.22;88.25;100427.08;3664734;79;98340;-79
2022/04/20 06:36:13;;;;;;;14.77;7.53;;;;;;;7.23;88.77;100424.55;3659135;80;98377;-80
2022/04/20 06:41:14;;;;;;;12.53;6.27;;;;;;;7.24;89.19;100415.74;3691628;77;98828;-79
2022/04/20 06:46:15;;;;;;;14.43;6.30;;;;;;;7.28;89.49;100418.00;3701905;76;98589;-79
2022/04/20 06:51:16;;;;;;;13.13;6.83;;;;;;;7.31;89.66;100407.72;3739167;77;98629;-79
2022/04/20 07:01:36;;;;;;;10.75;6.25;;;;;;;7.41;90.47;100398.38;3743289;75;98641;-79
2022/04/20 07:06:37;;;;;;;13.87;6.00;;;;;;;7.46;90.69;100389.08;3751005;77;31633;-79
2022/04/20 07:11:39;;;;;;;11.10;5.95;;;;;;;7.53;90.46;100389.27;3747090;78;98546;-79
2022/04/20 07:16:40;;;;;;;9.57;5.27;;;;;;;7.60;90.74;100386.67;3756657;77;98597;-79
2022/04/20 07:21:41;;;;;;;11.20;6.23;;;;;;;7.65;90.69;100382.29;3749369;77;98620;-80
2022/04/20 07:26:42;;;;;;;9.50;4.97;;;;;;;7.72;90.51;100370.11;3758289;77;98653;-80
2022/04/20 07:31:43;;;;;;;9.47;5.57;;;;;;;7.80;90.57;100360.91;3754743;76;98547;-78
2022/04/20 07:36:44;;;;;;;11.70;6.77;;;;;;;7.88;90.58;100353.84;3765100;77;31637;-80
2022/04/20 07:41:45;;;;;;;12.20;6.33;;;;;;;7.89;90.45;100354.05;3726995;77;98661;-80
2022/04/20 07:46:46;;;;;;;10.67;6.50;;;;;;;7.92;90.62;100347.83;3772413;77;98544;-79
2022/04/20 07:51:47;;;;;;;14.37;7.07;;;;;;;8.04;90.59;100349.64;3786052;75;98571;-79
2022/04/20 07:56:48;;;;;;;12.77;6.80;;;;;;;8.12;90.85;100344.53;3781825;76;98610;-80
2022/04/20 08:01:49;;;;;;;12.37;6.08;;;;;;;8.15;90.96;100341.05;3778248;76;98739;-80
2022/04/20 08:06:50;;;;;;;11.48;5.83;;;;;;;8.24;90.91;100338.31;3780940;76;31620;-80
2022/04/20 08:11:51;;;;;;;12.77;5.57;;;;;;;8.31;90.83;100334.35;3762356;76;98623;-80
2022/04/20 08:16:52;;;;;;;11.90;5.60;;;;;;;8.40;91.22;100336.27;3791899;75;99351;-79
2022/04/20 08:21:53;;;;;;;9.47;4.30;;;;;;;8.49;91.05;100346.42;3771445;76;98767;-79
2022/04/20 08:26:55;;;;;;;12.30;5.10;;;;;;;8.50;90.96;100337.64;3775387;76;98521;-80
2022/04/20 08:31:56;;;;;;;9.10;4.97;;;;;;;8.57;90.57;100322.06;3774974;76;98560;-80
2022/04/20 08:36:56;;;;;;;9.17;4.90;;;;;;;8.60;90.63;100330.14;3782076;76;34831;-80
2022/04/20 08:42:00;;;;;;;9.48;4.45;;;;;;;8.49;90.66;100326.42;3783841;76;98578;-81
2022/04/20 08:47:02;;;;;;;11.80;5.40;;;;;;;8.52;90.67;100326.52;3770583;76;98473;-80
2022/04/20 08:57:25;;;;;;;10.15;5.47;;;;;;;8.53;90.70;100303.97;3796132;76;98434;-83
2022/04/20 09:02:28;;;;;;;9.70;4.33;;;;;;;8.53;90.85;100287.52;3779385;76;98672;-82
2022/04/20 09:07:31;;;;;;;12.35;5.00;;;;;;;8.51;90.70;100284.36;3789209;76;98488;-82
2022/04/20 09:12:32;;;;;;;14.18;5.45;;;;;;;8.48;90.84;100272.17;3796642;76;98704;-83
2022/04/20 09:17:45;;;;;;;12.30;6.77;;;;;;;8.39;91.09;100248.30;3798925;76;98609;-84
2022/04/20 09:23:07;;;;;;;16.23;7.95;;;;;;;8.38;91.31;100248.66;3789453;76;98707;-84
2022/04/20 09:28:08;;;;;;;14.75;7.78;;;;;;;8.29;91.87;100246.77;3796931;76;98942;-83
2022/04/20 09:33:10;;;;;;;13.20;7.07;;;;;;;8.24;92.55;100243.73;3779834;76;98675;-83
2022/04/20 09:38:13;;;;;;;15.20;6.53;;;;;;;8.23;92.77;100235.90;3798202;76;98942;-83
2022/04/20 09:43:18;;;;;;;11.57;5.40;;;;;;;8.23;92.99;100215.34;3785528;76;98203;-82
2022/04/20 09:53:48;;;;;;;9.70;4.67;;;;;;;8.22;93.82;100226.06;3755365;77;98856;-83
2022/04/20 09:58:47;;;;;;;11.03;4.95;;;;;;;8.23;93.89;100222.96;3791720;75;98249;-82
2022/04/20 10:03:56;;;;;;;9.07;4.40;;;;;;;8.29;94.58;100212.50;3782601;76;98517;-82
2022/04/20 10:08:57;;;;;;;9.85;5.10;;;;;;;8.28;94.69;100197.21;3795068;76;98486;-82
2022/04/20 10:19:08;;;;;;;11.15;5.55;;;;;;;8.30;94.88;100181.17;3760122;76;31569;-84
2022/04/20 10:24:15;;;;;;;8.58;4.33;;;;;;;8.29;95.14;100167.26;3784241;76;98116;-82
2022/04/20 10:29:22;;;;;;;9.40;4.45;;;;;;;8.21;94.89;100160.87;3779859;76;98061;-83
2022/04/20 10:34:23;;;;;;;11.38;4.40;;;;;;;8.15;95.07;100143.69;3804568;76;98344;-83
2022/04/20 10:39:27;;;;;;;8.70;4.30;;;;;;;8.11;95.63;100151.86;3784811;76;99074;-84
2022/04/20 10:45:05;;;;;;;9.03;4.85;;;;;;;8.10;95.76;100149.48;3795441;76;98877;-81
2022/04/20 10:50:28;;;;;;;13.60;7.62;;;;;;;8.12;95.78;100155.41;3781782;76;98378;-84
2022/04/20 10:55:43;;;;;;;13.90;8.23;;;;;;;8.16;96.09;100165.83;3808573;76;98685;-84
2022/04/20 11:00:44;;;;;;;10.45;6.12;;;;;;;8.13;96.33;100154.24;3787062;76;98817;-83
2022/04/20 11:05:54;;;;;;;9.60;5.35;;;;;;;8.16;96.64;100150.75;3766256;76;98443;-84
2022/04/20 11:21:54;;;;;;;;;;;;;;;8.22;97.59;100157.53;3777707;76;98811;-84
2022/04/20 11:26:58;;;;;;;15.32;8.73;;;;;;;8.25;98.85;100159.55;3761363;76;83951;-84
2022/04/20 11:32:03;;;;;;;12.23;7.10;;;;;;;8.38;98.22;100152.69;3760420;76;98642;-84
2022/04/20 11:37:09;;;;;;;10.05;5.33;;;;;;;8.45;98.28;100120.69;3757597;76;31666;-86
2022/04/20 11:42:11;;;;;;;13.75;5.80;;;;;;;8.47;97.97;100141.70;3766218;76;98462;-83
2022/04/20 11:47:16;;;;;;;12.35;6.50;;;;;;;8.46;98.49;100161.25;3762810;77;98373;-83
2022/04/20 11:52:18;;;;;;;11.08;6.83;;;;;;;8.47;97.97;100156.78;3763446;77;98648;-83
2022/04/20 11:57:20;;;;;;;18.60;8.68;;;;;;;8.50;97.87;100154.66;3771990;77;97753;-85
2022/04/20 12:02:20;;;;;;;15.13;8.07;;;;;;;8.60;97.78;100144.98;3776027;77;98751;-84
2022/04/20 12:07:22;;;;;;;14.73;7.87;;;;;;;8.65;97.89;100141.36;3771547;77;25783;-84
2022/04/20 12:12:24;;;;;;;18.25;8.05;;;;;;;8.65;97.80;100141.93;3763675;76;98395;-86
2022/04/20 12:17:26;;;;;;;14.85;8.48;;;;;;;8.68;97.81;100136.48;3758152;78;98511;-83
2022/04/20 12:22:27;;;;;;;16.52;9.35;;;;;;;8.66;97.84;100128.41;3760708;77;98576;-82
2022/04/20 12:27:28;;;;;;;15.90;9.33;;;;;;;8.66;97.93;100125.67;3767916;77;98645;-85
2022/04/20 12:32:33;;;;;;;14.80;8.48;;;;;;;8.71;97.77;100130.27;3764479;77;98636;-85
2022/04/20 12:37:39;;;;;;;14.95;7.80;;;;;;;8.75;97.93;100128.37;3761463;77;98677;-85
2022/04/20 12:42:41;;;;;;;14.70;8.00;;;;;;;8.76;97.98;100116.23;3770154;77;98534;-84
2022/04/20 12:47:42;;;;;;;14.20;8.78;;;;;;;8.79;98.05;100111.95;3773145;77;98497;-85
2022/04/20 12:52:52;;;;;;;15.40;9.00;;;;;;;8.87;98.14;100110.87;3750699;77;98796;-84
2022/04/20 13:03:20;;;;;;;18.57;8.93;;;;;;;8.96;98.46;100112.76;3784584;76;98601;-83
2022/04/20 13:08:26;;;;;;;15.47;9.30;;;;;;;9.02;98.06;100112.06;3809270;76;98635;-85
2022/04/20 13:13:32;;;;;;;18.33;10.27;;;;;;;9.09;98.18;100117.63;3810463;76;105377;-83
2022/04/20 13:18:33;;;;;;;16.17;8.85;;;;;;;9.14;98.17;100111.00;3797810;77;25936;-85
2022/04/20 13:23:39;;;;;;;15.53;8.63;;;;;;;9.14;98.48;100107.69;3771518;77;98401;-85
2022/04/20 13:28:40;;;;;;;17.80;10.43;;;;;;;9.20;98.43;100110.30;3816466;77;98976;-84
2022/04/20 13:33:42;;;;;;;17.07;11.20;;;;;;;9.26;98.38;100115.66;3801327;76;98940;-84
2022/04/20 13:38:48;;;;;;;20.50;10.53;;;;;;;9.33;98.44;100110.84;3794034;76;98761;-83
2022/04/20 13:43:53;;;;;;;16.55;10.72;;;;;;;9.39;98.44;100114.23;3807507;76;98847;-83
2022/04/20 13:48:53;;;;;;;17.25;10.93;;;;;;;9.48;98.57;100114.72;3776932;77;31683;-84
2022/04/20 13:53:54;;;;;;;14.85;10.23;;;;;;;9.53;98.24;100117.14;3714713;78;98650;-83
2022/04/20 13:59:00;;;;;;;21.07;13.63;;;;;;;9.59;98.49;100116.99;3730113;78;98667;-85
2022/04/20 14:04:03;;;;;;;21.80;11.97;;;;;;;9.65;98.53;100117.45;3695724;77;99323;-85
2022/04/20 14:09:06;;;;;;;20.15;13.22;;;;;;;9.69;98.32;100116.89;3693919;79;98008;-84
2022/04/20 14:14:09;;;;;;;26.68;12.82;;;;;;;9.75;98.10;100117.55;3691905;77;98214;-85
2022/04/20 14:19:15;;;;;;;18.23;12.35;;;;;;;9.78;98.05;100118.75;3731658;78;31575;-86
2022/04/20 14:24:19;;;;;;;22.10;12.63;;;;;;;9.78;98.04;100120.92;3612780;79;98709;-85
2022/04/20 14:34:46;;;;;;;20.15;13.03;;;;;;;9.84;97.99;100118.03;3626333;81;97985;-84
2022/04/20 14:39:48;;;;;;;22.02;12.85;;;;;;;9.82;97.85;100124.47;3572124;80;98869;-83
2022/04/20 14:44:52;;;;;;;23.73;15.23;;;;;;;9.82;97.81;100116.83;3660258;79;98779;-84
2022/04/20 14:49:55;;;;;;;22.67;13.43;;;;;;;9.87;97.62;100124.73;3635896;79;98715;-84
2022/04/20 14:54:58;;;;;;;26.33;13.68;;;;;;;9.84;97.74;100135.09;3621219;80;31605;-83
2022/04/20 14:59:59;;;;;;;20.12;12.65;;;;;;;9.91;97.52;100136.52;3595464;80;98739;-83
2022/04/20 15:05:02;;;;;;;18.25;11.40;;;;;;;9.93;97.54;100138.33;3657970;80;98285;-84
2022/04/20 15:10:06;;;;;;;17.12;11.60;;;;;;;9.94;97.68;100142.65;3625571;79;98924;-84
2022/04/20 15:15:13;;;;;;;20.27;11.90;;;;;;;9.96;97.70;100149.92;3679978;79;99450;-84
2022/04/20 15:20:14;;;;;;;18.77;11.55;;;;;;;10.00;97.31;100148.80;3692302;79;99748;-83
2022/04/20 15:25:17;;;;;;;20.40;12.28;;;;;;;10.04;97.32;100149.64;3706802;79;31578;-85
2022/04/20 15:30:20;;;;;;;20.17;11.10;;;;;;;10.05;97.32;100144.37;3689210;79;98974;-84
2022/04/20 15:35:47;;;;;;;18.45;11.83;;;;;;;10.01;97.50;100150.38;3658812;78;99094;-84
2022/04/20 15:40:48;;;;;;;19.40;11.50;;;;;;;10.00;97.54;100148.80;3623215;80;99275;-84
2022/04/20 15:45:58;;;;;;;19.73;10.80;;;;;;;10.03;97.46;100152.76;3630368;80;98522;-84
2022/04/20 15:51:03;;;;;;;18.10;10.90;;;;;;;9.97;97.66;100155.05;3604358;79;99322;-84
2022/04/20 16:01:45;;;;;;;;;;;;;;;9.93;97.95;100147.34;3512771;81;98903;-84
2022/04/20 16:06:53;;;;;;;;;;;;;;;;;;;;;
2022/04/20 16:11:54;;;;;;;16.48;9.98;;;;;;;9.93;98.38;100143.83;3565143;81;98999;-84
2022/04/20 16:17:08;;;;;;;;;;;;;;;;;;;;;
2022/04/20 16:22:07;;;;;;;17.45;10.80;;;;;;;9.90;98.22;100143.20;3681549;78;98593;-85
2022/04/20 16:27:22;;;;;;;18.23;10.13;;;;;;;9.88;98.35;100154.56;3678209;79;98863;-84
2022/04/20 16:32:22;;;;;;;15.38;9.55;;;;;;;9.85;98.36;100160.83;3636560;79;98947;-84
2022/04/20 16:37:27;;;;;;;17.23;9.88;;;;;;;9.85;98.50;100163.58;3679246;80;31666;-83
2022/04/20 16:42:46;;;;;;;15.93;10.08;;;;;;;9.84;98.30;100166.70;3586500;80;98922;-83
2022/04/20 16:47:48;;;;;;;14.30;9.10;;;;;;;9.83;98.43;100164.55;3647264;79;98050;-84
2022/04/20 16:52:42;;;;;;;16.00;10.05;;;;;;;9.84;98.29;100160.63;3713118;76;98663;-83
2022/04/20 16:57:44;;;;;;;18.98;12.88;;;;;;;9.85;98.21;100164.95;3821746;76;98185;-83
2022/04/20 17:02:51;;;;;;;23.32;13.72;;;;;;;9.84;98.34;100170.83;3784929;76;98350;-82
2022/04/20 17:07:54;;;;;;;17.35;12.25;;;;;;;9.81;98.43;100172.37;3732315;78;25854;-82
2022/04/20 17:12:59;;;;;;;19.35;12.15;;;;;;;9.78;98.43;100171.77;3740330;77;98623;-82
2022/04/20 17:18:01;;;;;;;17.75;12.05;;;;;;;9.78;98.36;100174.52;3765337;76;97811;-83
2022/04/20 17:28:27;;;;;;;22.30;12.10;;;;;;;9.75;98.50;100180.75;3739881;77;98086;-84
2022/04/20 17:33:29;;;;;;;20.03;11.80;;;;;;;9.74;98.48;100187.99;3757975;77;98418;-84
2022/04/20 17:38:31;;;;;;;22.13;13.50;;;;;;;9.70;98.44;100192.08;3790696;76;98890;-85
2022/04/20 17:43:35;;;;;;;25.30;15.23;;;;;;;9.69;98.31;100188.33;3738386;76;98823;-84
2022/04/20 17:48:41;;;;;;;24.05;14.78;;;;;;;9.67;98.32;100187.36;3796758;76;99260;-86
2022/04/20 17:53:47;;;;;;;23.70;13.83;;;;;;;9.66;98.19;100184.98;3777584;76;99125;-85
2022/04/20 17:58:49;;;;;;;24.43;13.95;;;;;;;9.63;97.89;100185.14;3810122;76;98856;-86
2022/04/20 18:04:06;;;;;;;26.27;16.05;;;;;;;9.62;98.01;100183.57;3739401;76;98671;-84
2022/04/20 18:09:13;;;;;;;27.27;15.68;;;;;;;9.59;98.15;100190.41;3802267;76;99297;-86
2022/04/20 18:14:14;;;;;;;;;;;;;;;9.53;98.38;100192.68;3782270;76;98248;-85
2022/04/20 18:19:18;;;;;;;21.37;13.00;;;;;;;9.49;98.89;100208.33;3806574;76;84350;-86
2022/04/20 18:24:22;;;;;;;21.17;13.13;;;;;;;9.48;98.09;100193.61;3775687;76;99203;-86
2022/04/20 18:29:28;;;;;;;22.43;14.10;;;;;;;9.46;97.82;100195.92;3787372;76;99165;-86
2022/04/20 18:34:34;;;;;;;;;;;;;;;9.45;98.02;100186.11;3771396;77;98759;-85
2022/04/20 18:39:36;;;;;;;22.40;12.35;;;;;;;9.40;99.00;100196.86;3766553;75;83939;-85
2022/04/20 18:44:40;;;;;;;22.00;13.90;;;;;;;9.34;98.39;100188.74;3755920;77;98267;-86
2022/04/20 18:49:48;;;;;;;21.45;11.97;;;;;;;9.31;98.75;100181.81;3736531;78;98415;-86
2022/04/20 19:00:15;;;;;;;22.75;12.65;;;;;;;9.24;99.02;100193.52;3742670;76;98649;-88
2022/04/20 19:05:26;;;;;;;20.52;12.98;;;;;;;9.21;99.19;100199.74;3813036;76;98068;-87
2022/04/20 19:10:32;;;;;;;24.40;13.48;;;;;;;9.17;99.08;100193.41;3790101;76;98866;-87
2022/04/20 19:15:43;;;;;;;22.60;13.32;;;;;;;9.15;99.47;100194.94;3802255;76;98775;-86
2022/04/20 19:20:49;;;;;;;25.83;15.20;;;;;;;9.11;99.50;100190.01;3811914;76;98836;-86
2022/04/20 19:25:50;;;;;;;20.40;12.23;;;;;;;9.09;99.50;100195.87;3833668;75;32170;-86
2022/04/20 19:30:56;;;;;;;20.90;13.25;;;;;;;9.07;99.52;100191.91;3805466;75;99127;-86
2022/04/20 19:36:09;;;;;;;18.02;11.03;;;;;;;9.04;99.47;100187.95;3829407;75;98721;-85
2022/04/20 19:41:11;;;;;;;21.80;11.48;;;;;;;9.01;99.41;100185.97;3698699;76;98918;-86
2022/04/20 19:46:33;;;;;;;21.30;12.27;;;;;;;9.03;99.22;100186.95;3690699;76;99283;-86
2022/04/20 19:51:44;;;;;;;21.87;11.22;;;;;;;9.01;99.35;100183.22;3579439;75;99608;-84
2022/04/20 19:56:48;;;;;;;19.27;11.78;;;;;;;9.00;99.42;100184.96;3605339;77;99114;-86
2022/04/20 20:01:48;;;;;;;17.13;10.80;;;;;;;8.99;99.54;100181.41;3636815;77;98926;-85
2022/04/20 20:06:50;;;;;;;18.20;11.57;;;;;;;8.96;99.94;100186.29;3650488;77;99100;-84
2022/04/20 20:11:53;;;;;;;21.75;12.80;;;;;;;8.94;100.00;100181.73;3766784;76;99360;-85
2022/04/20 20:16:54;;;;;;;19.52;12.03;;;;;;;8.93;99.97;100184.84;3792043;75;99070;-85
2022/04/20 20:21:55;;;;;;;18.00;11.97;;;;;;;8.92;100.00;100191.50;3778335;76;26641;-84
2022/04/20 20:32:15;;;;;;;18.75;11.83;;;;;;;8.89;100.00;100185.40;3746707;76;98782;-84
2022/04/20 20:37:16;;;;;;;19.97;13.17;;;;;;;8.89;100.00;100188.14;3751096;77;99280;-84
2022/04/20 20:42:17;;;;;;;19.63;13.07;;;;;;;8.91;100.00;100181.12;3764294;76;99031;-84
2022/04/20 20:47:18;;;;;;;21.63;13.33;;;;;;;8.85;100.00;100182.61;3795273;76;99367;-84
2022/04/20 20:52:19;;;;;;;21.00;12.67;;;;;;;8.83;100.00;100185.52;3770416;76;98852;-84
2022/04/20 20:57:20;;;;;;;20.03;14.03;;;;;;;8.80;100.00;100185.67;3692557;78;98989;-84
2022/04/20 21:02:21;;;;;;;24.97;16.37;;;;;;;8.79;100.00;100192.30;3691267;78;99411;-83
2022/04/20 21:07:22;;;;;;;22.37;15.03;;;;;;;8.75;100.00;100190.11;3718706;78;98895;-83
2022/04/20 21:12:23;;;;;;;21.33;14.80;;;;;;;8.72;100.00;100187.31;3705390;78;98579;-83
2022/04/20 21:17:24;;;;;;;25.06;14.46;;;;;;;8.68;100.00;100180.38;3675026;78;99270;-83
2022/04/20 21:22:25;;;;;;;25.60;15.18;;;;;;;8.66;100.00;100186.83;3675169;79;98868;-84
2022/04/20 21:27:26;;;;;;;24.63;15.93;;;;;;;8.67;100.00;100179.41;3688940;79;98928;-84
2022/04/20 21:32:27;;;;;;;30.30;18.17;;;;;;;8.67;100.00;100187.63;3683598;79;98821;-85
2022/04/20 21:37:28;;;;;;;30.43;18.43;;;;;;;8.67;100.00;100187.63;3702277;78;98978;-84
2022/04/20 21:42:29;;;;;;;34.67;20.20;;;;;;;8.69;100.00;100186.67;3702180;79;98640;-83
2022/04/20 21:47:31;;;;;;;34.37;19.50;;;;;;;8.71;100.00;100192.00;3685995;78;99131;-84
2022/04/20 21:52:32;;;;;;;28.30;17.50;;;;;;;8.70;100.00;100190.42;3672566;78;98732;-85
2022/04/20 21:57:34;;;;;;;30.37;17.63;;;;;;;8.68;100.00;100193.33;3696712;78;99391;-84
2022/04/20 22:08:37;;;;;;;34.10;19.30;;;;;;;8.67;100.00;100195.86;3701343;78;99357;-84
2022/04/20 22:13:19;;;;;;;29.90;17.77;;;;;;;8.66;100.00;100197.00;3683223;78;98994;-83
2022/04/20 22:18:58;;;;;;;33.83;18.70;;;;;;;8.61;100.00;100200.09;3675158;80;25861;-82
2022/04/20 22:23:47;;;;;;;29.25;17.37;;;;;;;8.58;100.00;100202.18;3635780;78;99502;-83
2022/04/20 22:28:50;;;;;;;29.72;17.70;;;;;;;8.60;100.00;100206.70;3680783;78;98841;-82
2022/04/20 22:33:59;;;;;;;27.37;16.83;;;;;;;8.58;100.00;100198.06;3628806;80;99066;-82
2022/04/20 22:39:04;;;;;;;29.25;17.73;;;;;;;8.61;100.00;100195.38;3687061;78;99377;-82
2022/04/20 22:44:09;;;;;;;32.15;19.02;;;;;;;8.61;100.00;100200.86;3697278;78;99031;-82
2022/04/20 22:49:13;;;;;;;28.95;17.73;;;;;;;8.61;100.00;100189.89;3698349;78;99069;-82
2022/04/20 22:54:20;;;;;;;30.00;18.07;;;;;;;8.63;100.00;100186.78;3676917;76;98634;-81
2022/04/20 22:59:19;;;;;;;35.23;21.23;;;;;;;8.62;100.00;100183.83;3786485;76;99184;-82
2022/04/20 23:04:30;;;;;;;29.05;18.25;;;;;;;8.66;100.00;100190.14;3765252;76;98613;-82
2022/04/20 23:09:36;;;;;;;31.75;19.02;;;;;;;8.70;100.00;100167.11;3777994;76;99380;-83
2022/04/20 23:15:00;;;;;;;31.45;19.27;;;;;;;8.75;100.00;100154.44;3754826;76;99346;-83
2022/04/20 23:20:11;;;;;;;33.67;20.25;;;;;;;8.79;100.00;100140.77;3786444;76;99058;-83
2022/04/20 23:30:38;;;;;;;34.27;20.00;;;;;;;8.87;100.00;100137.73;3782063;76;34885;-83
2022/04/20 23:35:43;;;;;;;41.30;21.85;;;;;;;8.88;100.00;100133.05;3704310;77;98534;-83
2022/04/20 23:40:46;;;;;;;42.05;21.17;;;;;;;8.89;100.00;100134.03;3795138;76;98756;-83
2022/04/20 23:45:53;;;;;;;36.40;21.15;;;;;;;8.84;100.00;100143.96;3774011;77;98142;-83
2022/04/20 23:51:01;;;;;;;85.33;33.53;;;;;;;8.82;100.00;100150.98;3717981;76;99508;-83
2022/04/20 23:56:16;;;;;;;42.30;22.98;;;;;;;8.72;100.00;100133.22;3724953;78;98992;-83
